createdAt,value
2022-12-14T00:00:24.396Z,6.50
2022-12-14T00:05:31.456Z,7.60
2022-12-14T00:10:40.554Z,7.30
2022-12-14T00:15:47.550Z,7.47
2022-12-14T00:20:54.316Z,7.60
2022-12-14T00:26:02.852Z,7.63
2022-12-14T00:31:10.069Z,7.80
2022-12-14T00:36:17.218Z,9.73
2022-12-14T00:41:24.329Z,10.47
2022-12-14T00:46:31.658Z,7.20
2022-12-14T00:51:39.374Z,6.30
2022-12-14T00:56:46.278Z,6.27
2022-12-14T01:01:53.642Z,7.47
2022-12-14T01:07:00.748Z,7.97
2022-12-14T01:12:07.851Z,8.40
2022-12-14T01:17:14.682Z,8.57
2022-12-14T01:22:21.458Z,9.63
2022-12-14T01:27:28.371Z,8.37
2022-12-14T01:32:36.723Z,9.40
2022-12-14T01:37:43.519Z,9.00
2022-12-14T01:42:50.628Z,9.17
2022-12-14T01:48:01.215Z,9.30
2022-12-14T01:53:14.092Z,9.50
2022-12-14T01:58:26.812Z,8.90
2022-12-14T02:03:43.950Z,10.90
2022-12-14T02:08:53.946Z,11.10
2022-12-14T02:14:01.018Z,11.80
2022-12-14T02:19:08.037Z,11.23
2022-12-14T02:24:37.156Z,9.67
2022-12-14T02:30:19.616Z,9.83
2022-12-14T02:36:02.807Z,10.00
2022-12-14T02:41:39.155Z,10.00
2022-12-14T02:47:18.467Z,9.87
2022-12-14T02:53:04.812Z,10.17
2022-12-14T02:58:21.731Z,10.50
2022-12-14T03:03:28.793Z,10.70
2022-12-14T03:08:38.056Z,10.80
2022-12-14T03:14:01.092Z,9.33
2022-12-14T03:19:20.497Z,11.20
2022-12-14T03:24:31.521Z,12.13
2022-12-14T03:29:55.534Z,11.67
2022-12-14T03:35:20.627Z,10.07
2022-12-14T03:40:34.590Z,10.93
2022-12-14T03:46:09.691Z,10.77
2022-12-14T03:51:52.229Z,12.47
2022-12-14T03:57:46.774Z,12.50
2022-12-14T04:03:11.949Z,11.33
2022-12-14T04:08:53.489Z,11.03
2022-12-14T04:14:22.420Z,10.50
2022-12-14T04:19:45.896Z,9.70
2022-12-14T04:25:24.029Z,12.90
2022-12-14T04:30:34.076Z,13.87
2022-12-14T04:35:43.065Z,12.73
2022-12-14T04:40:56.975Z,10.90
2022-12-14T04:46:10.146Z,10.30
2022-12-14T04:52:01.942Z,11.08
2022-12-14T04:57:17.388Z,9.93
2022-12-14T05:02:44.191Z,10.57
2022-12-14T05:08:06.923Z,22.70
2022-12-14T05:13:27.116Z,25.67
2022-12-14T05:18:38.357Z,41.90
2022-12-14T05:23:45.086Z,19.87
2022-12-14T05:28:51.762Z,19.80
2022-12-14T05:33:58.530Z,11.07
2022-12-14T05:39:05.449Z,11.33
2022-12-14T05:44:12.328Z,12.90
2022-12-14T05:49:20.004Z,12.63
2022-12-14T05:54:26.659Z,12.80
2022-12-14T05:59:34.227Z,20.10
2022-12-14T06:04:41.773Z,15.00
2022-12-14T06:09:48.452Z,14.47
2022-12-14T06:14:55.162Z,10.17
2022-12-14T06:20:02.457Z,11.63
2022-12-14T06:25:11.327Z,10.93
2022-12-14T06:30:18.708Z,12.37
2022-12-14T06:35:25.330Z,19.23
2022-12-14T06:40:32.043Z,21.90
2022-12-14T06:45:38.970Z,15.67
2022-12-14T06:50:45.722Z,12.57
2022-12-14T06:55:52.460Z,12.90
2022-12-14T07:01:07.787Z,11.83
2022-12-14T07:06:14.537Z,11.47
2022-12-14T07:11:21.319Z,12.63
2022-12-14T07:16:32.512Z,11.93
2022-12-14T07:21:39.214Z,13.70
2022-12-14T07:26:46.665Z,13.27
2022-12-14T07:31:53.550Z,12.50
2022-12-14T07:37:00.322Z,13.60
2022-12-14T07:42:07.054Z,12.97
2022-12-14T07:47:16.698Z,13.57
2022-12-14T07:52:22.565Z,13.90
2022-12-14T07:57:29.267Z,12.97
2022-12-14T08:02:36.112Z,12.30
2022-12-14T08:07:43.048Z,12.37
2022-12-14T08:12:52.685Z,12.03
2022-12-14T08:17:59.381Z,13.53
2022-12-14T08:23:06.395Z,13.67
2022-12-14T08:28:13.205Z,13.33
2022-12-14T08:33:21.502Z,13.80
2022-12-14T08:38:28.348Z,13.70
2022-12-14T08:43:35.330Z,12.77
2022-12-14T08:48:42.029Z,13.23
2022-12-14T08:53:48.760Z,11.53
2022-12-14T08:58:55.768Z,13.47
2022-12-14T09:04:06.297Z,11.13
2022-12-14T09:09:16.317Z,12.27
2022-12-14T09:14:21.701Z,12.03
2022-12-14T09:19:29.036Z,12.63
2022-12-14T09:24:36.173Z,11.93
2022-12-14T09:29:42.874Z,12.90
2022-12-14T09:34:49.566Z,12.63
2022-12-14T09:39:56.289Z,11.53
2022-12-14T09:45:19.392Z,13.03
2022-12-14T09:50:26.254Z,13.23
2022-12-14T09:55:44.946Z,13.47
2022-12-14T10:01:26.028Z,13.90
2022-12-14T10:06:59.447Z,13.30
2022-12-14T10:12:19.735Z,13.20
2022-12-14T10:17:48.664Z,12.40
2022-12-14T10:22:56.811Z,12.17
2022-12-14T10:28:11.779Z,12.53
2022-12-14T10:33:28.174Z,13.30
2022-12-14T10:38:44.956Z,12.27
2022-12-14T10:44:09.528Z,13.03
2022-12-14T10:49:26.069Z,12.73
2022-12-14T10:54:39.373Z,12.53
2022-12-14T11:00:05.224Z,11.95
2022-12-14T11:05:07.121Z,12.50
2022-12-14T11:10:29.377Z,12.70
2022-12-14T11:15:42.505Z,13.07
2022-12-14T11:20:56.649Z,12.50
2022-12-14T11:26:07.845Z,12.77
2022-12-14T11:31:27.627Z,13.33
2022-12-14T11:36:42.801Z,12.87
2022-12-14T11:42:04.748Z,13.33
2022-12-14T11:47:17.383Z,14.13
2022-12-14T11:52:40.456Z,13.93
2022-12-14T11:57:56.551Z,14.03
2022-12-14T12:03:16.480Z,12.80
2022-12-14T12:08:35.982Z,14.10
2022-12-14T12:13:45.323Z,13.97
2022-12-14T12:19:04.024Z,14.23
2022-12-14T12:24:17.339Z,14.27
2022-12-14T12:29:50.409Z,13.77
2022-12-14T12:35:12.273Z,13.87
2022-12-14T12:40:34.507Z,12.70
2022-12-14T12:45:45.698Z,14.07
2022-12-14T12:50:59.991Z,13.80
2022-12-14T12:56:14.085Z,13.27
2022-12-14T13:01:36.422Z,14.67
2022-12-14T13:06:52.956Z,13.70
2022-12-14T13:12:01.531Z,14.13
2022-12-14T13:17:12.736Z,12.87
2022-12-14T13:22:27.360Z,13.80
2022-12-14T13:27:56.894Z,14.57
2022-12-14T13:33:27.365Z,13.33
2022-12-14T13:38:44.482Z,13.50
2022-12-14T13:44:03.700Z,13.70
2022-12-14T13:49:18.017Z,14.33
2022-12-14T13:54:32.182Z,13.77
2022-12-14T13:59:46.305Z,14.63
2022-12-14T14:04:53.146Z,15.03
2022-12-14T14:10:06.927Z,14.33
2022-12-14T14:15:32.043Z,15.43
2022-12-14T14:20:58.939Z,14.93
2022-12-14T14:26:26.031Z,15.33
2022-12-14T14:31:52.799Z,16.10
2022-12-14T14:37:00.039Z,15.90
2022-12-14T14:42:10.186Z,28.80
2022-12-14T14:47:27.071Z,17.13
2022-12-14T14:52:45.946Z,15.17
2022-12-14T14:58:30.807Z,14.87
2022-12-14T15:03:58.094Z,15.10
2022-12-14T15:09:12.579Z,14.47
2022-12-14T15:14:48.268Z,14.17
2022-12-14T15:20:02.538Z,14.17
2022-12-14T15:25:28.382Z,14.00
2022-12-14T15:30:37.077Z,14.50
2022-12-14T15:35:43.965Z,15.57
2022-12-14T15:41:04.060Z,16.43
2022-12-14T15:46:29.850Z,14.20
2022-12-14T15:51:43.678Z,14.53
2022-12-14T15:56:59.397Z,14.10
2022-12-14T16:02:32.530Z,14.37
2022-12-14T16:07:42.007Z,14.13
2022-12-14T16:12:51.531Z,14.90
2022-12-14T16:18:02.640Z,15.77
2022-12-14T16:23:19.373Z,16.67
2022-12-14T16:28:36.537Z,16.30
2022-12-14T16:33:45.667Z,14.47
2022-12-14T16:39:10.413Z,15.90
2022-12-14T16:44:33.231Z,13.67
2022-12-14T16:49:55.355Z,16.12
2022-12-14T16:55:20.639Z,21.20
2022-12-14T17:00:35.048Z,22.73
2022-12-14T17:05:43.802Z,17.83
2022-12-14T17:10:51.269Z,16.07
2022-12-14T17:16:07.858Z,16.07
2022-12-14T17:21:27.219Z,16.60
2022-12-14T17:26:35.479Z,19.13
2022-12-14T17:31:47.671Z,17.03
2022-12-14T17:36:51.057Z,17.53
2022-12-14T17:41:58.398Z,16.37
2022-12-14T17:47:05.548Z,16.93
2022-12-14T17:52:29.214Z,17.53
2022-12-14T17:57:41.044Z,17.15
2022-12-14T18:02:48.197Z,17.00
2022-12-14T18:07:55.613Z,17.47
2022-12-14T18:13:02.806Z,17.13
2022-12-14T18:18:10.655Z,17.50
2022-12-14T18:23:19.990Z,16.97
2022-12-14T18:28:27.303Z,17.33
2022-12-14T18:33:35.496Z,18.13
2022-12-14T18:38:42.519Z,17.20
2022-12-14T18:43:50.615Z,16.30
2022-12-14T18:48:57.385Z,16.90
2022-12-14T18:54:04.604Z,16.70
2022-12-14T18:59:11.746Z,15.93
2022-12-14T19:04:18.838Z,17.73
2022-12-14T19:09:25.777Z,17.07
2022-12-14T19:14:32.932Z,16.97
2022-12-14T19:19:44.396Z,17.37
2022-12-14T19:24:52.277Z,17.40
2022-12-14T19:29:57.533Z,17.93
2022-12-14T19:35:04.416Z,15.87
2022-12-14T19:40:13.842Z,16.80
2022-12-14T19:45:20.906Z,19.13
2022-12-14T19:50:28.488Z,16.40
2022-12-14T19:55:36.576Z,15.40
2022-12-14T20:00:43.527Z,16.13
2022-12-14T20:05:59.908Z,15.50
2022-12-14T20:11:12.416Z,16.23
2022-12-14T20:16:20.355Z,28.70
2022-12-14T20:21:29.773Z,14.83
2022-12-14T20:26:37.176Z,15.70
2022-12-14T20:31:44.163Z,17.00
2022-12-14T20:36:51.123Z,14.80
2022-12-14T20:41:58.899Z,16.70
2022-12-14T20:47:05.787Z,30.37
2022-12-14T20:52:12.787Z,27.20
2022-12-14T20:57:20.040Z,33.83
2022-12-14T21:02:27.231Z,15.03
2022-12-14T21:07:34.481Z,26.50
2022-12-14T21:12:41.278Z,16.07
2022-12-14T21:17:48.022Z,14.13
2022-12-14T21:22:54.843Z,12.53
2022-12-14T21:28:01.584Z,13.70
2022-12-14T21:33:08.279Z,13.33
2022-12-14T21:38:14.963Z,22.53
2022-12-14T21:43:21.719Z,12.93
2022-12-14T21:48:28.872Z,14.07
2022-12-14T21:53:37.099Z,6.50
2022-12-14T21:58:48.511Z,4.70
2022-12-14T22:03:54.733Z,4.00
2022-12-14T22:09:03.496Z,4.20
2022-12-14T22:14:13.446Z,4.60
2022-12-14T22:19:26.088Z,6.40
2022-12-14T22:24:33.190Z,7.37
2022-12-14T22:29:40.347Z,7.13
2022-12-14T22:34:47.107Z,6.13
2022-12-14T22:39:54.269Z,5.77
2022-12-14T22:45:01.083Z,5.60
2022-12-14T22:50:09.131Z,4.90
2022-12-14T22:55:16.604Z,4.60
2022-12-14T23:00:23.810Z,4.57
2022-12-14T23:06:27.402Z,3.53
2022-12-14T23:11:52.381Z,3.50
2022-12-14T23:17:18.741Z,3.40
2022-12-14T23:22:42.609Z,3.50
2022-12-14T23:28:07.024Z,3.20
2022-12-14T23:33:32.019Z,2.90
2022-12-14T23:38:57.026Z,2.77
2022-12-14T23:44:21.830Z,3.63
2022-12-14T23:49:45.992Z,3.77
2022-12-14T23:55:10.481Z,4.00
